Time,TemperatureF,DewpointF,PressureIn,WindDirection,WindDirectionDegrees,WindSpeedMPH,WindSpeedGustMPH,Humidity,HourlyPrecipIn,Conditions,Clouds,dailyrainin,SoftwareType,DateUTC
2013-11-03 00:00:00,46.9,39.4,29.30,West,279,14.0,23.0,75,0.00,RA,RA,0.00,WeatherDisplay:10.37,2013-11-03 00:00:00,
2013-11-03 00:10:00,46.8,39.3,29.30,WNW,299,14.0,23.0,75,0.00,CLR,CLR,0.00,WeatherDisplay:10.37,2013-11-03 00:10:00,
2013-11-03 00:20:00,46.9,39.4,29.30,WNW,294,16.0,23.0,75,0.00,CLR,CLR,0.00,WeatherDisplay:10.37,2013-11-03 00:20:00,
2013-11-03 00:30:00,47.1,39.3,29.30,WNW,296,13.0,23.0,74,0.00,CLR,CLR,0.00,WeatherDisplay:10.37,2013-11-03 00:30:00,
2013-11-03 00:40:00,46.8,38.9,29.30,West,279,13.0,21.0,74,0.00,CLR,CLR,0.00,WeatherDisplay:10.37,2013-11-03 00:40:00,
2013-11-03 00:50:00,46.4,38.9,29.31,WNW,285,10.0,16.0,75,0.00,CLR,CLR,0.00,WeatherDisplay:10.37,2013-11-03 00:50:00,
2013-11-03 01:00:00,46.8,39.6,29.31,West,280,12.0,18.0,76,0.00,CLR,CLR,0.00,WeatherDisplay:10.37,2013-11-03 01:00:00,
2013-11-03 01:10:00,46.9,39.4,29.31,WNW,288,10.0,20.0,75,0.00,CLR,CLR,0.00,WeatherDisplay:10.37,2013-11-03 01:10:00,
2013-11-03 01:20:00,46.4,38.9,29.31,WNW,288,10.0,18.0,75,0.00,CLR,CLR,0.00,WeatherDisplay:10.37,2013-11-03 01:20:00,
2013-11-03 01:30:00,46.6,39.1,29.31,WNW,284,14.0,20.0,75,0.00,CLR,CLR,0.00,WeatherDisplay:10.37,2013-11-03 01:30:00,
2013-11-03 01:40:00,46.8,39.3,29.31,WNW,282,12.0,25.0,75,0.00,CLR,CLR,0.00,WeatherDisplay:10.37,2013-11-03 01:40:00,
2013-11-03 01:50:00,47.1,39.3,29.32,WNW,286,17.0,24.0,74,0.00,CLR,CLR,0.00,WeatherDisplay:10.37,2013-11-03 01:50:00,
2013-11-03 02:00:00,47.3,38.7,29.32,WNW,287,16.0,29.0,72,0.00,CLR,CLR,0.00,WeatherDisplay:10.37,2013-11-03 02:00:00,
2013-11-03 02:10:00,47.3,39.1,29.32,WNW,288,16.0,23.0,73,0.00,CLR,CLR,0.00,WeatherDisplay:10.37,2013-11-03 02:10:00,
2013-11-03 02:20:00,47.7,39.8,29.32,WNW,283,17.0,26.0,74,0.00,CLR,CLR,0.00,WeatherDisplay:10.37,2013-11-03 02:20:00,
2013-11-03 02:30:00,47.1,39.3,29.32,NW,305,18.0,26.0,74,0.00,CLR,CLR,0.00,WeatherDisplay:10.37,2013-11-03 02:30:00,
2013-11-03 02:40:00,47.3,38.7,29.32,WNW,302,17.0,25.0,72,0.00,CLR,CLR,0.00,WeatherDisplay:10.37,2013-11-03 02:40:00,
2013-11-03 02:50:00,47.1,38.9,29.33,WNW,285,13.0,27.0,73,0.00,CLR,CLR,0.00,WeatherDisplay:10.37,2013-11-03 02:50:00,
2013-11-03 03:00:00,46.9,39.1,29.33,West,281,8.0,17.0,74,0.00,CLR,CLR,0.00,WeatherDisplay:10.37,2013-11-03 03:00:00,
2013-11-03 03:10:00,47.1,39.3,29.32,WNW,288,8.0,15.0,74,0.00,CLR,CLR,0.00,WeatherDisplay:10.37,2013-11-03 03:10:00,
2013-11-03 03:20:00,47.7,39.8,29.32,WNW,296,16.0,22.0,74,0.00,CLR,CLR,0.00,WeatherDisplay:10.37,2013-11-03 03:20:00,
2013-11-03 03:30:00,48.2,39.6,29.31,WNW,294,18.0,28.0,72,0.00,CLR,CLR,0.00,WeatherDisplay:10.37,2013-11-03 03:30:00,
2013-11-03 03:40:00,48.6,39.9,29.32,WNW,293,21.0,29.0,72,0.00,CLR,CLR,0.00,WeatherDisplay:10.37,2013-11-03 03:40:00,
2013-11-03 03:50:00,48.6,39.9,29.32,WNW,302,22.0,31.0,72,0.00,CLR,CLR,0.00,WeatherDisplay:10.37,2013-11-03 03:50:00,
2013-11-03 04:00:00,48.6,38.8,29.32,WNW,295,18.0,34.0,69,0.00,CLR,CLR,0.00,WeatherDisplay:10.37,2013-11-03 04:00:00,
2013-11-03 04:10:00,48.3,38.6,29.32,NW,309,21.0,30.0,69,0.00,CLR,CLR,0.00,WeatherDisplay:10.37,2013-11-03 04:10:00,
2013-11-03 04:20:00,48.0,39.1,29.32,WNW,287,20.0,33.0,71,0.00,CLR,CLR,0.00,WeatherDisplay:10.37,2013-11-03 04:20:00,
2013-11-03 04:30:00,48.4,37.2,29.33,NW,304,21.0,32.0,65,0.00,CLR,CLR,0.00,WeatherDisplay:10.37,2013-11-03 04:30:00,
2013-11-03 04:40:00,48.4,37.9,29.33,WNW,285,15.0,29.0,67,0.00,CLR,CLR,0.00,WeatherDisplay:10.37,2013-11-03 04:40:00,
2013-11-03 04:50:00,48.6,38.1,29.33,NW,306,16.0,26.0,67,0.00,CLR,CLR,0.00,WeatherDisplay:10.37,2013-11-03 04:50:00,
2013-11-03 05:00:00,48.5,38.4,29.34,NW,308,18.0,25.0,68,0.00,CLR,CLR,0.00,WeatherDisplay:10.37,2013-11-03 05:00:00,
2013-11-03 05:10:00,48.6,37.3,29.34,WNW,285,22.0,30.0,65,0.01,RA,RA,0.01,WeatherDisplay:10.37,2013-11-03 05:10:00,
2013-11-03 05:20:00,48.6,37.7,29.34,WNW,288,13.0,29.0,66,0.00,CLR,CLR,0.01,WeatherDisplay:10.37,2013-11-03 05:20:00,
2013-11-03 05:30:00,48.0,38.7,29.34,WNW,288,15.0,23.0,70,0.00,CLR,CLR,0.01,WeatherDisplay:10.37,2013-11-03 05:30:00,
2013-11-03 05:40:00,48.2,38.5,29.34,WNW,292,15.0,26.0,69,0.00,CLR,CLR,0.01,WeatherDisplay:10.37,2013-11-03 05:40:00,
2013-11-03 05:50:00,48.0,38.7,29.35,NW,306,16.0,25.0,70,0.00,CLR,CLR,0.01,WeatherDisplay:10.37,2013-11-03 05:50:00,
2013-11-03 06:00:00,47.8,38.5,29.35,WNW,286,17.0,23.0,70,0.00,CLR,CLR,0.01,WeatherDisplay:10.37,2013-11-03 06:00:00,
2013-11-03 06:10:00,47.9,39.0,29.36,West,278,16.0,27.0,71,0.00,CLR,CLR,0.01,WeatherDisplay:10.37,2013-11-03 06:10:00,
2013-11-03 06:20:00,47.1,38.6,29.36,WNW,282,17.0,29.0,72,0.00,CLR,CLR,0.01,WeatherDisplay:10.37,2013-11-03 06:20:00,
2013-11-03 06:30:00,47.3,38.7,29.36,WNW,302,20.0,31.0,72,0.00,CLR,CLR,0.01,WeatherDisplay:10.37,2013-11-03 06:30:00,
2013-11-03 06:40:00,47.5,38.2,29.36,West,270,21.0,35.0,70,0.04,RA,RA,0.05,WeatherDisplay:10.37,2013-11-03 06:40:00,
2013-11-03 06:50:00,47.6,36.4,29.35,West,276,18.0,36.0,65,0.02,RA,RA,0.07,WeatherDisplay:10.37,2013-11-03 06:50:00,
2013-11-03 07:00:00,47.7,36.9,29.35,WNW,289,16.0,30.0,66,0.00,CLR,CLR,0.07,WeatherDisplay:10.37,2013-11-03 07:00:00,
2013-11-03 07:10:00,47.8,38.5,29.36,WNW,301,16.0,29.0,70,0.00,CLR,CLR,0.07,WeatherDisplay:10.37,2013-11-03 07:10:00,
2013-11-03 07:20:00,47.5,38.5,29.36,NW,310,15.0,23.0,71,0.00,CLR,CLR,0.07,WeatherDisplay:10.37,2013-11-03 07:20:00,
2013-11-03 07:30:00,47.5,38.9,29.36,NW,311,15.0,26.0,72,0.00,CLR,CLR,0.07,WeatherDisplay:10.37,2013-11-03 07:30:00,
2013-11-03 07:40:00,47.3,38.7,29.37,NW,316,15.0,21.0,72,0.00,CLR,CLR,0.07,WeatherDisplay:10.37,2013-11-03 07:40:00,
2013-11-03 07:50:00,47.5,38.5,29.37,NW,305,14.0,20.0,71,0.00,CLR,CLR,0.07,WeatherDisplay:10.37,2013-11-03 07:50:00,
2013-11-03 08:00:00,47.7,38.4,29.37,NW,305,16.0,24.0,70,0.00,CLR,CLR,0.07,WeatherDisplay:10.37,2013-11-03 08:00:00,
2013-11-03 08:10:00,47.6,37.9,29.37,NW,310,14.0,21.0,69,0.00,CLR,CLR,0.07,WeatherDisplay:10.37,2013-11-03 08:10:00,
2013-11-03 08:20:00,47.5,38.2,29.37,NW,312,12.0,18.0,70,0.00,CLR,CLR,0.07,WeatherDisplay:10.37,2013-11-03 08:20:00,
2013-11-03 08:30:00,47.7,38.4,29.37,WNW,283,10.0,17.0,70,0.00,CLR,CLR,0.07,WeatherDisplay:10.37,2013-11-03 08:30:00,
2013-11-03 08:40:00,47.8,38.5,29.38,WNW,292,9.0,14.0,70,0.00,CLR,CLR,0.07,WeatherDisplay:10.37,2013-11-03 08:40:00,
2013-11-03 08:50:00,47.8,38.9,29.37,WNW,294,10.0,14.0,71,0.00,CLR,CLR,0.07,WeatherDisplay:10.37,2013-11-03 08:50:00,
2013-11-03 09:00:00,48.0,39.4,29.37,WNW,294,9.0,15.0,72,0.00,CLR,CLR,0.07,WeatherDisplay:10.37,2013-11-03 09:00:00,
2013-11-03 09:10:00,48.4,39.0,29.37,West,270,8.0,15.0,70,0.00,CLR,CLR,0.07,WeatherDisplay:10.37,2013-11-03 09:10:00,
2013-11-03 09:20:00,49.1,39.8,29.37,West,281,6.0,12.0,70,0.00,CLR,CLR,0.07,WeatherDisplay:10.37,2013-11-03 09:20:00,
2013-11-03 09:30:00,49.5,39.3,29.37,West,273,6.0,14.0,68,0.00,CLR,CLR,0.07,WeatherDisplay:10.37,2013-11-03 09:30:00,
2013-11-03 09:40:00,50.4,39.8,29.37,West,281,7.0,13.0,67,0.00,CLR,CLR,0.07,WeatherDisplay:10.37,2013-11-03 09:40:00,
2013-11-03 09:50:00,50.6,39.3,29.37,West,280,8.0,13.0,65,0.00,CLR,CLR,0.07,WeatherDisplay:10.37,2013-11-03 09:50:00,
2013-11-03 10:00:00,51.1,39.7,29.37,WNW,292,9.0,14.0,65,0.00,CLR,CLR,0.07,WeatherDisplay:10.37,2013-11-03 10:00:00,
2013-11-03 10:10:00,51.3,39.5,29.37,WNW,298,9.0,13.0,64,0.00,CLR,CLR,0.07,WeatherDisplay:10.37,2013-11-03 10:10:00,
2013-11-03 10:20:00,51.9,40.5,29.14,NW,312,9.0,15.0,65,0.00,CLR,CLR,0.07,WeatherDisplay:10.37,2013-11-03 10:20:00,
2013-11-03 10:30:00,52.3,40.5,29.36,West,275,6.0,10.0,64,0.00,CLR,CLR,0.07,WeatherDisplay:10.37,2013-11-03 10:30:00,
2013-11-03 10:40:00,51.9,39.7,29.36,West,268,7.0,10.0,63,0.00,CLR,CLR,0.07,WeatherDisplay:10.37,2013-11-03 10:40:00,
2013-11-03 10:50:00,52.4,40.6,29.36,WSW,244,6.0,9.0,64,0.00,CLR,CLR,0.07,WeatherDisplay:10.37,2013-11-03 10:50:00,
2013-11-03 11:00:00,51.8,40.4,29.35,SW,232,5.0,8.0,65,0.00,CLR,CLR,0.07,WeatherDisplay:10.37,2013-11-03 11:00:00,
2013-11-03 11:10:00,52.6,40.8,29.35,SW,228,6.0,8.0,64,0.00,CLR,CLR,0.07,WeatherDisplay:10.37,2013-11-03 11:10:00,
2013-11-03 11:20:00,50.9,39.9,29.35,SW,221,3.0,8.0,66,0.00,CLR,CLR,0.07,WeatherDisplay:10.37,2013-11-03 11:20:00,
2013-11-03 11:30:00,51.3,39.5,29.35,SW,232,3.0,6.0,64,0.00,CLR,CLR,0.07,WeatherDisplay:10.37,2013-11-03 11:30:00,
2013-11-03 11:40:00,51.4,39.7,29.34,SW,225,3.0,5.0,64,0.00,CLR,CLR,0.07,WeatherDisplay:10.37,2013-11-03 11:40:00,
2013-11-03 11:50:00,50.9,39.9,29.34,South,186,2.0,5.0,66,0.00,CLR,CLR,0.07,WeatherDisplay:10.37,2013-11-03 11:50:00,
2013-11-03 12:00:00,53.8,41.5,29.33,South,177,5.0,6.0,63,0.00,CLR,CLR,0.07,WeatherDisplay:10.37,2013-11-03 12:00:00,
2013-11-03 12:10:00,53.7,39.3,29.32,SSE,166,3.0,7.0,58,0.00,CLR,CLR,0.07,WeatherDisplay:10.37,2013-11-03 12:10:00,
2013-11-03 12:20:00,51.8,39.2,29.32,SSW,194,5.0,8.0,62,0.00,CLR,CLR,0.07,WeatherDisplay:10.37,2013-11-03 12:20:00,
2013-11-03 12:30:00,51.4,38.8,29.31,SSW,205,5.0,8.0,62,0.00,CLR,CLR,0.07,WeatherDisplay:10.37,2013-11-03 12:30:00,
2013-11-03 12:40:00,50.9,38.7,29.30,South,173,6.0,8.0,63,0.00,CLR,CLR,0.07,WeatherDisplay:10.37,2013-11-03 12:40:00,
2013-11-03 12:50:00,50.5,40.4,29.29,SSE,162,7.0,9.0,68,0.00,CLR,CLR,0.07,WeatherDisplay:10.37,2013-11-03 12:50:00,
2013-11-03 13:00:00,49.8,40.8,29.29,SSE,147,6.0,9.0,71,0.00,CLR,CLR,0.07,WeatherDisplay:10.37,2013-11-03 13:00:00,
2013-11-03 13:10:00,49.5,41.5,29.28,SSE,156,9.0,13.0,74,0.00,CLR,CLR,0.07,WeatherDisplay:10.37,2013-11-03 13:10:00,
2013-11-03 13:20:00,48.7,41.2,29.27,SE,138,9.0,15.0,75,0.00,CLR,CLR,0.07,WeatherDisplay:10.37,2013-11-03 13:20:00,
2013-11-03 13:30:00,48.6,41.3,29.27,SSE,148,7.0,13.0,76,0.00,CLR,CLR,0.07,WeatherDisplay:10.37,2013-11-03 13:30:00,
2013-11-03 13:40:00,48.9,41.7,29.26,SE,138,6.0,10.0,76,0.00,CLR,CLR,0.07,WeatherDisplay:10.37,2013-11-03 13:40:00,
2013-11-03 13:50:00,49.1,41.9,29.25,SE,135,8.0,11.0,76,0.00,CLR,CLR,0.07,WeatherDisplay:10.37,2013-11-03 13:50:00,
2013-11-03 14:00:00,49.3,42.0,29.25,SSE,149,7.0,12.0,76,0.00,CLR,CLR,0.07,WeatherDisplay:10.37,2013-11-03 14:00:00,
2013-11-03 14:10:00,49.5,42.2,29.24,SE,143,8.0,11.0,76,0.00,CLR,CLR,0.07,WeatherDisplay:10.37,2013-11-03 14:10:00,
2013-11-03 14:20:00,49.6,41.7,29.23,SSE,159,8.0,13.0,74,0.00,CLR,CLR,0.07,WeatherDisplay:10.37,2013-11-03 14:20:00,
2013-11-03 14:30:00,49.5,41.5,29.23,SE,141,7.0,13.0,74,0.00,CLR,CLR,0.07,WeatherDisplay:10.37,2013-11-03 14:30:00,
2013-11-03 14:40:00,49.2,41.6,29.22,SSE,161,9.0,13.0,75,0.00,CLR,CLR,0.07,WeatherDisplay:10.37,2013-11-03 14:40:00,
2013-11-03 14:50:00,49.0,41.1,29.22,SSE,148,7.0,13.0,74,0.00,CLR,CLR,0.07,WeatherDisplay:10.37,2013-11-03 14:50:00,
2013-11-03 15:00:00,48.7,40.8,29.21,SE,143,8.0,11.0,74,0.00,CLR,CLR,0.07,WeatherDisplay:10.37,2013-11-03 15:00:00,
2013-11-03 15:10:00,48.6,40.6,29.20,SE,146,8.0,12.0,74,0.00,CLR,CLR,0.07,WeatherDisplay:10.37,2013-11-03 15:10:00,
2013-11-03 15:20:00,48.4,40.8,29.20,SSE,148,5.0,13.0,75,0.00,CLR,CLR,0.07,WeatherDisplay:10.37,2013-11-03 15:20:00,
2013-11-03 15:30:00,48.2,40.3,29.19,ESE,119,5.0,10.0,74,0.00,CLR,CLR,0.07,WeatherDisplay:10.37,2013-11-03 15:30:00,
2013-11-03 15:40:00,48.2,40.6,29.19,ESE,119,3.0,7.0,75,0.00,CLR,CLR,0.07,WeatherDisplay:10.37,2013-11-03 15:40:00,
2013-11-03 15:50:00,48.0,40.8,29.18,ESE,115,3.0,7.0,76,0.00,CLR,CLR,0.07,WeatherDisplay:10.37,2013-11-03 15:50:00,
2013-11-03 16:00:00,47.8,41.0,29.18,ESE,110,6.0,8.0,77,0.00,CLR,CLR,0.07,WeatherDisplay:10.37,2013-11-03 16:00:00,
2013-11-03 16:10:00,47.5,40.6,29.18,ESE,115,5.0,9.0,77,0.00,CLR,CLR,0.07,WeatherDisplay:10.37,2013-11-03 16:10:00,
2013-11-03 16:20:00,47.3,40.5,29.17,ESE,104,5.0,8.0,77,0.00,CLR,CLR,0.07,WeatherDisplay:10.37,2013-11-03 16:20:00,
2013-11-03 16:30:00,47.3,40.5,29.17,East,94,5.0,7.0,77,0.00,CLR,CLR,0.07,WeatherDisplay:10.37,2013-11-03 16:30:00,
2013-11-03 16:40:00,47.1,40.3,29.17,East,92,3.0,7.0,77,0.00,CLR,CLR,0.07,WeatherDisplay:10.37,2013-11-03 16:40:00,
2013-11-03 16:50:00,46.9,40.1,29.17,East,92,2.0,6.0,77,0.00,CLR,CLR,0.07,WeatherDisplay:10.37,2013-11-03 16:50:00,
2013-11-03 17:00:00,46.8,39.9,29.17,ENE,72,3.0,7.0,77,0.00,CLR,CLR,0.07,WeatherDisplay:10.37,2013-11-03 17:00:00,
2013-11-03 17:10:00,46.8,39.9,29.17,ENE,71,3.0,8.0,77,0.00,CLR,CLR,0.07,WeatherDisplay:10.37,2013-11-03 17:10:00,
2013-11-03 17:20:00,46.6,39.8,29.16,NE,45,5.0,8.0,77,0.00,CLR,CLR,0.07,WeatherDisplay:10.37,2013-11-03 17:20:00,
2013-11-03 17:30:00,46.4,39.9,29.16,NE,52,6.0,9.0,78,0.00,CLR,CLR,0.07,WeatherDisplay:10.37,2013-11-03 17:30:00,
2013-11-03 17:40:00,46.2,40.1,29.16,ENE,61,3.0,8.0,79,0.00,CLR,CLR,0.07,WeatherDisplay:10.37,2013-11-03 17:40:00,
2013-11-03 17:50:00,45.9,40.4,29.16,ENE,64,6.0,10.0,81,0.00,CLR,CLR,0.07,WeatherDisplay:10.37,2013-11-03 17:50:00,
2013-11-03 18:00:00,45.7,40.2,29.15,ENE,60,5.0,11.0,81,0.00,CLR,CLR,0.07,WeatherDisplay:10.37,2013-11-03 18:00:00,
2013-11-03 18:10:00,45.5,40.0,29.15,ENE,63,3.0,8.0,81,0.00,CLR,CLR,0.07,WeatherDisplay:10.37,2013-11-03 18:10:00,
2013-11-03 18:20:00,45.3,39.8,29.15,NE,55,3.0,8.0,81,0.00,CLR,CLR,0.07,WeatherDisplay:10.37,2013-11-03 18:20:00,
2013-11-03 18:30:00,45.0,39.8,29.15,NE,49,5.0,8.0,82,0.00,CLR,CLR,0.07,WeatherDisplay:10.37,2013-11-03 18:30:00,
2013-11-03 18:40:00,45.0,39.8,29.15,NE,44,6.0,10.0,82,0.00,CLR,CLR,0.07,WeatherDisplay:10.37,2013-11-03 18:40:00,
2013-11-03 18:50:00,44.6,39.4,29.15,NE,34,6.0,13.0,82,0.00,CLR,CLR,0.07,WeatherDisplay:10.37,2013-11-03 18:50:00,
2013-11-03 19:00:00,44.4,39.6,29.15,NE,41,6.0,9.0,83,0.00,CLR,CLR,0.07,WeatherDisplay:10.37,2013-11-03 19:00:00,
2013-11-03 19:10:00,44.6,39.4,29.15,NE,34,6.0,11.0,82,0.00,CLR,CLR,0.07,WeatherDisplay:10.37,2013-11-03 19:10:00,
2013-11-03 19:20:00,44.6,39.8,29.15,NE,36,9.0,13.0,83,0.00,CLR,CLR,0.07,WeatherDisplay:10.37,2013-11-03 19:20:00,
2013-11-03 19:30:00,44.4,39.9,29.15,NE,37,5.0,13.0,84,0.00,CLR,CLR,0.07,WeatherDisplay:10.37,2013-11-03 19:30:00,
2013-11-03 19:40:00,44.4,39.9,29.15,NE,37,7.0,12.0,84,0.00,CLR,CLR,0.07,WeatherDisplay:10.37,2013-11-03 19:40:00,
2013-11-03 19:50:00,44.2,39.7,29.15,NE,41,3.0,12.0,84,0.00,CLR,CLR,0.07,WeatherDisplay:10.37,2013-11-03 19:50:00,
2013-11-03 20:00:00,44.2,39.7,29.15,NNE,21,7.0,12.0,84,0.00,CLR,CLR,0.07,WeatherDisplay:10.37,2013-11-03 20:00:00,
2013-11-03 20:10:00,44.1,39.5,29.15,NNE,12,6.0,10.0,84,0.00,CLR,CLR,0.07,WeatherDisplay:10.37,2013-11-03 20:10:00,
2013-11-03 20:20:00,43.8,39.2,29.15,NNE,27,5.0,9.0,84,0.00,CLR,CLR,0.07,WeatherDisplay:10.37,2013-11-03 20:20:00,
2013-11-03 20:30:00,43.7,39.2,29.15,NNE,31,5.0,8.0,84,0.00,CLR,CLR,0.07,WeatherDisplay:10.37,2013-11-03 20:30:00,
2013-11-03 20:40:00,43.7,39.2,29.15,NNE,31,6.0,10.0,84,0.00,CLR,CLR,0.07,WeatherDisplay:10.37,2013-11-03 20:40:00,
2013-11-03 20:50:00,43.6,39.0,29.15,NNE,32,2.0,10.0,84,0.00,CLR,CLR,0.07,WeatherDisplay:10.37,2013-11-03 20:50:00,
2013-11-03 21:00:00,43.5,39.0,29.15,NE,35,5.0,9.0,84,0.00,CLR,CLR,0.07,WeatherDisplay:10.37,2013-11-03 21:00:00,
2013-11-03 21:10:00,43.5,39.0,29.16,NNE,14,5.0,9.0,84,0.00,CLR,CLR,0.07,WeatherDisplay:10.37,2013-11-03 21:10:00,
2013-11-03 21:20:00,43.3,38.8,29.16,NE,35,5.0,10.0,84,0.00,CLR,CLR,0.07,WeatherDisplay:10.37,2013-11-03 21:20:00,
2013-11-03 21:30:00,43.2,38.7,29.16,NNE,32,8.0,13.0,84,0.00,CLR,CLR,0.07,WeatherDisplay:10.37,2013-11-03 21:30:00,
2013-11-03 21:40:00,43.0,38.5,29.16,NNW,346,5.0,13.0,84,0.00,CLR,CLR,0.07,WeatherDisplay:10.37,2013-11-03 21:40:00,
2013-11-03 21:50:00,43.2,38.7,29.16,NE,43,6.0,11.0,84,0.00,CLR,CLR,0.07,WeatherDisplay:10.37,2013-11-03 21:50:00,
2013-11-03 22:00:00,43.0,38.5,29.17,NNE,30,3.0,8.0,84,0.00,CLR,CLR,0.07,WeatherDisplay:10.37,2013-11-03 22:00:00,
2013-11-03 22:10:00,42.6,38.4,29.17,NNE,23,7.0,12.0,85,0.00,CLR,CLR,0.07,WeatherDisplay:10.37,2013-11-03 22:10:00,
2013-11-03 22:20:00,42.6,38.4,29.17,NE,36,5.0,13.0,85,0.00,CLR,CLR,0.07,WeatherDisplay:10.37,2013-11-03 22:20:00,
2013-11-03 22:30:00,42.4,38.2,29.17,NE,34,6.0,11.0,85,0.00,CLR,CLR,0.07,WeatherDisplay:10.37,2013-11-03 22:30:00,
2013-11-03 22:40:00,42.3,38.1,29.17,NNE,17,8.0,13.0,85,0.00,CLR,CLR,0.07,WeatherDisplay:10.37,2013-11-03 22:40:00,
2013-11-03 22:50:00,42.1,37.6,29.18,NNE,27,8.0,13.0,84,0.00,CLR,CLR,0.07,WeatherDisplay:10.37,2013-11-03 22:50:00,
2013-11-03 23:00:00,41.5,37.1,29.18,NNE,28,3.0,10.0,84,0.00,CLR,CLR,0.07,WeatherDisplay:10.37,2013-11-03 23:00:00,
2013-11-03 23:10:00,41.4,36.9,29.18,NE,38,3.0,9.0,84,0.00,CLR,CLR,0.07,WeatherDisplay:10.37,2013-11-03 23:10:00,
2013-11-03 23:20:00,41.2,37.0,29.18,NNE,25,5.0,10.0,85,0.00,CLR,CLR,0.07,WeatherDisplay:10.37,2013-11-03 23:20:00,
2013-11-03 23:30:00,41.0,36.8,29.18,NNE,27,6.0,9.0,85,0.00,CLR,CLR,0.07,WeatherDisplay:10.37,2013-11-03 23:30:00,
2013-11-03 23:40:00,41.0,36.5,29.19,NNE,33,6.0,9.0,84,0.00,CLR,CLR,0.07,WeatherDisplay:10.37,2013-11-03 23:40:00,
2013-11-03 23:50:00,41.0,36.3,29.19,NNE,28,7.0,12.0,83,0.00,CLR,CLR,0.07,WeatherDisplay:10.37,2013-11-03 23:50:00,